Time;durP1;ratioP1;P1;durP2;ratioP2;P2;SDS_P1;SDS_P2;PMS_P1;PMS_P2;Temp;Humidity;BMP_temperature;BMP_pressure;BME280_temperature;BME280_humidity;BME280_pressure;Samples;Min_cycle;Max_cycle;Signal;HPM_P1;HPM_P2
2022/03/11 00:01:19;;;;;;;3.53;3.22;;;20.60;26.00;;;;;;5126165;27;46898;-21
2022/03/11 00:03:45;;;;;;;4.57;3.42;;;20.60;26.00;;;;;;5125830;27;46969;-21
2022/03/11 00:06:12;;;;;;;4.70;3.72;;;20.60;25.90;;;;;;5126051;27;47205;-22
2022/03/11 00:08:40;;;;;;;4.03;3.50;;;20.60;26.00;;;;;;5128914;27;47725;-21
2022/03/11 00:11:07;;;;;;;3.85;3.13;;;20.60;25.90;;;;;;5129141;27;46837;-21
2022/03/11 00:13:35;;;;;;;3.47;3.17;;;20.60;26.00;;;;;;5129653;27;46902;-21
2022/03/11 00:16:02;;;;;;;3.70;3.22;;;20.60;26.00;;;;;;5129479;27;47314;-21
2022/03/11 00:18:28;;;;;;;4.15;3.38;;;20.60;26.00;;;;;;5129557;27;46912;-21
2022/03/11 00:20:56;;;;;;;3.75;2.95;;;20.50;25.90;;;;;;5129135;27;47110;-21
2022/03/11 00:23:23;;;;;;;3.40;3.10;;;20.50;25.90;;;;;;5129434;27;46734;-22
2022/03/11 00:25:51;;;;;;;4.32;3.30;;;20.50;25.90;;;;;;5129529;27;47166;-21
2022/03/11 00:28:17;;;;;;;3.67;3.00;;;20.50;26.00;;;;;;5128945;27;47951;-21
2022/03/11 00:30:44;;;;;;;3.42;3.13;;;20.50;25.90;;;;;;5129325;27;46930;-21
2022/03/11 00:33:11;;;;;;;3.53;3.00;;;20.50;25.90;;;;;;5128670;27;46784;-21
2022/03/11 00:35:38;;;;;;;2.95;2.65;;;20.50;25.90;;;;;;5128861;27;46830;-21
2022/03/11 00:38:04;;;;;;;3.22;2.92;;;20.50;25.90;;;;;;5128895;27;48181;-21
2022/03/11 00:40:31;;;;;;;3.63;3.10;;;20.40;25.90;;;;;;5128996;27;47442;-21
2022/03/11 00:42:59;;;;;;;3.42;3.13;;;20.40;25.90;;;;;;5129390;27;46895;-21
2022/03/11 00:45:26;;;;;;;3.72;3.20;;;20.40;25.90;;;;;;5128941;27;46954;-21
2022/03/11 00:47:52;;;;;;;3.60;3.30;;;20.40;25.80;;;;;;5128738;27;47921;-21
2022/03/11 00:50:19;;;;;;;3.45;3.10;;;20.40;25.80;;;;;;5128910;27;46754;-21
2022/03/11 00:52:46;;;;;;;3.60;3.03;;;20.40;25.80;;;;;;5128843;27;46923;-20
2022/03/11 00:55:13;;;;;;;3.17;2.88;;;20.40;25.80;;;;;;5128982;27;46897;-21
2022/03/11 00:57:39;;;;;;;3.30;2.95;;;20.40;25.80;;;;;;5128798;27;48214;-20
2022/03/11 01:00:08;;;;;;;3.35;3.05;;;20.40;25.80;;;;;;5128824;27;47263;-21
2022/03/11 01:02:35;;;;;;;3.63;2.88;;;20.40;25.80;;;;;;5128868;27;46987;-21
2022/03/11 01:05:03;;;;;;;3.28;2.90;;;20.40;25.80;;;;;;5128836;27;47103;-21
2022/03/11 01:07:30;;;;;;;3.17;2.88;;;20.40;26.20;;;;;;5128702;27;48018;-20
2022/03/11 01:09:57;;;;;;;3.90;3.20;;;20.30;25.70;;;;;;5128218;27;47015;-21
2022/03/11 01:12:23;;;;;;;3.97;2.83;;;20.30;25.70;;;;;;5128474;27;46742;-20
2022/03/11 01:14:50;;;;;;;3.20;2.90;;;20.30;25.70;;;;;;5128730;27;47420;-21
2022/03/11 01:17:18;;;;;;;3.08;2.78;;;20.30;25.70;;;;;;5128500;27;47816;-21
2022/03/11 01:19:45;;;;;;;3.13;2.80;;;20.30;25.70;;;;;;5128049;27;47165;-21
2022/03/11 01:22:11;;;;;;;3.10;2.80;;;20.30;25.70;;;;;;5128685;27;46853;-21
2022/03/11 01:24:38;;;;;;;3.10;2.80;;;20.30;25.70;;;;;;5128414;27;46901;-21
2022/03/11 01:27:05;;;;;;;3.58;2.97;;;20.30;25.70;;;;;;5128351;27;48893;-22
2022/03/11 01:29:32;;;;;;;3.00;2.70;;;20.20;25.60;;;;;;5128083;27;47459;-22
2022/03/11 01:31:59;;;;;;;3.28;2.97;;;20.30;25.60;;;;;;5128223;27;47001;-21
2022/03/11 01:34:27;;;;;;;4.40;2.95;;;20.30;25.60;;;;;;5128324;27;47022;-22
2022/03/11 01:36:53;;;;;;;3.53;2.75;;;20.30;25.60;;;;;;5127843;27;48100;-21
2022/03/11 01:39:20;;;;;;;3.35;3.05;;;20.20;25.70;;;;;;5128042;27;46922;-21
2022/03/11 01:41:47;;;;;;;3.10;2.72;;;20.20;25.70;;;;;;5127952;27;46869;-21
2022/03/11 01:44:13;;;;;;;3.42;3.08;;;20.20;25.60;;;;;;5128066;27;47213;-21
2022/03/11 01:46:40;;;;;;;3.33;3.03;;;20.20;25.60;;;;;;5128072;27;46908;-21
2022/03/11 01:49:08;;;;;;;3.58;2.90;;;20.30;25.60;;;;;;5127838;27;47525;-21
2022/03/11 01:51:38;;;;;;;3.03;2.70;;;20.20;25.60;;;;;;5128136;27;46830;-20
2022/03/11 01:54:05;;;;;;;3.03;2.60;;;20.20;25.60;;;;;;5128199;27;46932;-22
2022/03/11 01:56:32;;;;;;;2.88;2.60;;;20.20;25.60;;;;;;5127861;27;48791;-22
2022/03/11 01:58:59;;;;;;;3.10;2.80;;;20.20;25.60;;;;;;5127855;27;46990;-21
2022/03/11 02:01:26;;;;;;;4.32;3.00;;;20.20;25.60;;;;;;5127680;27;46825;-21
2022/03/11 02:03:52;;;;;;;3.70;2.60;;;20.20;25.60;;;;;;5128050;27;47128;-21
2022/03/11 02:06:19;;;;;;;4.00;2.85;;;20.20;25.60;;;;;;5127684;27;47056;-21
2022/03/11 02:08:48;;;;;;;3.33;2.70;;;20.20;25.60;;;;;;5127383;27;46929;-21
2022/03/11 02:11:14;;;;;;;3.60;3.30;;;20.10;25.60;;;;;;5127588;27;46780;-21
2022/03/11 02:13:45;;;;;;;4.18;2.90;;;20.10;25.60;;;;;;5127916;27;47267;-21
2022/03/11 02:16:15;;;;;;;3.20;2.90;;;20.20;25.60;;;;;;5127550;27;49095;-21
2022/03/11 02:18:42;;;;;;;3.28;2.80;;;20.10;25.50;;;;;;5127611;27;46862;-21
2022/03/11 02:21:10;;;;;;;3.97;2.95;;;20.10;25.60;;;;;;5127531;27;46935;-22
2022/03/11 02:23:42;;;;;;;3.00;2.67;;;20.10;25.60;;;;;;5127813;27;47315;-20
2022/03/11 02:26:09;;;;;;;3.20;2.90;;;20.10;25.60;;;;;;5127339;27;48795;-22
2022/03/11 02:28:35;;;;;;;3.05;2.70;;;20.10;25.50;;;;;;5127140;27;46934;-21
2022/03/11 02:31:02;;;;;;;4.35;3.00;;;20.10;25.50;;;;;;5126478;27;47010;-22
2022/03/11 02:33:29;;;;;;;3.13;2.83;;;20.10;25.50;;;;;;5127303;27;47148;-21
2022/03/11 02:35:56;;;;;;;4.18;3.15;;;20.10;25.50;;;;;;5126711;27;48370;-21
2022/03/11 02:38:22;;;;;;;3.03;2.72;;;20.00;25.50;;;;;;5127220;27;47428;-21
2022/03/11 02:40:50;;;;;;;3.05;2.85;;;20.10;25.60;;;;;;5127257;27;46943;-21
2022/03/11 02:43:17;;;;;;;3.15;2.85;;;20.00;25.50;;;;;;5127382;27;46921;-21
2022/03/11 02:45:44;;;;;;;3.05;2.75;;;20.00;25.50;;;;;;5126589;27;49260;-22
2022/03/11 02:48:10;;;;;;;3.03;2.72;;;20.00;25.50;;;;;;5127052;27;47010;-21
2022/03/11 02:50:37;;;;;;;3.33;2.63;;;20.00;25.50;;;;;;5127007;27;46928;-21
2022/03/11 02:53:04;;;;;;;3.97;3.00;;;20.00;25.50;;;;;;5126965;27;46857;-21
2022/03/11 02:55:30;;;;;;;2.97;2.78;;;20.00;25.50;;;;;;5126786;27;48883;-21
2022/03/11 02:57:58;;;;;;;3.13;2.83;;;20.00;25.50;;;;;;5126956;27;47006;-20
2022/03/11 03:00:25;;;;;;;3.28;2.95;;;20.00;25.40;;;;;;5126863;27;46805;-21
2022/03/11 03:02:52;;;;;;;3.22;2.92;;;19.90;25.50;;;;;;5127338;27;46948;-22
2022/03/11 03:05:19;;;;;;;4.43;3.03;;;19.90;26.00;;;;;;5126547;27;48224;-21
2022/03/11 03:07:45;;;;;;;4.93;3.08;;;19.90;25.50;;;;;;5126851;27;46837;-21
2022/03/11 03:10:12;;;;;;;3.20;2.90;;;19.90;25.50;;;;;;5126291;27;46804;-21
2022/03/11 03:12:39;;;;;;;3.38;2.92;;;19.90;25.40;;;;;;5127041;27;47244;-21
2022/03/11 03:15:08;;;;;;;3.17;2.65;;;19.90;25.50;;;;;;5126499;27;48225;-22
2022/03/11 03:17:34;;;;;;;3.08;2.50;;;19.90;25.50;;;;;;5126471;27;46861;-22
2022/03/11 03:20:01;;;;;;;3.20;2.90;;;19.90;25.50;;;;;;5126605;27;47003;-21
2022/03/11 03:22:28;;;;;;;3.70;3.05;;;19.90;25.50;;;;;;5126868;27;46933;-21
2022/03/11 03:24:55;;;;;;;2.90;2.70;;;19.80;25.40;;;;;;5126341;27;48054;-22
2022/03/11 03:27:21;;;;;;;3.47;2.75;;;19.90;25.50;;;;;;5126241;27;46818;-22
2022/03/11 03:29:48;;;;;;;3.38;2.92;;;19.80;25.40;;;;;;5126350;27;46902;-22
2022/03/11 03:32:16;;;;;;;3.20;2.90;;;19.80;25.50;;;;;;5126537;27;46922;-22
2022/03/11 03:34:43;;;;;;;3.30;2.80;;;19.80;25.40;;;;;;5126292;27;48265;-22
2022/03/11 03:37:10;;;;;;;2.88;2.58;;;19.80;25.90;;;;;;5126270;27;46885;-22
2022/03/11 03:39:37;;;;;;;2.70;2.50;;;19.80;25.40;;;;;;5126600;27;46876;-22
2022/03/11 03:42:04;;;;;;;3.00;2.70;;;19.80;25.40;;;;;;5128516;27;46968;-22
2022/03/11 03:44:31;;;;;;;3.55;3.25;;;19.70;25.40;;;;;;5129646;27;49178;-21
2022/03/11 03:46:58;;;;;;;2.90;2.55;;;19.70;25.40;;;;;;5130059;27;47451;-21
2022/03/11 03:49:26;;;;;;;2.63;2.38;;;19.80;25.40;;;;;;5129745;27;46747;-21
2022/03/11 03:51:52;;;;;;;2.97;2.45;;;19.80;25.40;;;;;;5130277;27;46923;-22
2022/03/11 03:54:19;;;;;;;3.50;2.80;;;19.70;25.40;;;;;;5129533;27;49037;-22
2022/03/11 03:56:46;;;;;;;2.95;2.75;;;19.70;25.40;;;;;;5129995;27;47184;-21
2022/03/11 03:59:13;;;;;;;3.08;2.78;;;19.70;25.40;;;;;;5129446;27;46793;-21
2022/03/11 04:01:41;;;;;;;3.10;2.83;;;19.70;25.40;;;;;;5129802;27;46922;-21
2022/03/11 04:04:08;;;;;;;3.13;2.83;;;19.70;25.30;;;;;;5129643;27;49065;-21
2022/03/11 04:06:37;;;;;;;2.90;2.70;;;19.70;25.40;;;;;;5129777;27;47405;-22
2022/03/11 04:09:05;;;;;;;3.15;2.85;;;19.70;25.40;;;;;;5129480;27;46726;-21
2022/03/11 04:11:32;;;;;;;3.10;2.80;;;19.70;25.40;;;;;;5129879;27;46975;-22
2022/03/11 04:13:59;;;;;;;2.85;2.60;;;19.70;25.40;;;;;;5129543;27;47069;-22
2022/03/11 04:16:26;;;;;;;3.00;2.80;;;19.70;25.40;;;;;;5129255;27;46987;-21
2022/03/11 04:18:54;;;;;;;3.38;3.00;;;19.70;25.40;;;;;;5129388;27;46879;-21
2022/03/11 04:21:21;;;;;;;3.28;2.92;;;19.60;25.30;;;;;;5129534;27;47053;-20
2022/03/11 04:23:49;;;;;;;3.45;2.80;;;19.60;25.30;;;;;;5129413;27;49127;-21
2022/03/11 04:26:16;;;;;;;2.90;2.60;;;19.60;25.30;;;;;;5129106;27;46900;-21
2022/03/11 04:28:43;;;;;;;3.67;3.00;;;19.70;25.90;;;;;;5129423;27;46743;-22
2022/03/11 04:31:10;;;;;;;3.50;2.63;;;19.60;25.30;;;;;;5129209;27;46841;-21
2022/03/11 04:33:37;;;;;;;2.58;2.38;;;19.70;25.40;;;;;;5128976;27;47024;-22
2022/03/11 04:36:04;;;;;;;3.10;2.80;;;19.60;25.30;;;;;;5128566;27;47001;-21
2022/03/11 04:38:31;;;;;;;2.70;2.50;;;19.60;25.30;;;;;;5129419;27;46930;-22
2022/03/11 04:40:59;;;;;;;2.67;2.47;;;19.60;25.30;;;;;;5129027;27;47048;-21
2022/03/11 04:43:26;;;;;;;3.08;2.88;;;19.60;25.30;;;;;;5129210;27;47926;-21
2022/03/11 04:45:53;;;;;;;2.72;2.53;;;19.60;25.30;;;;;;5129036;27;47080;-21
2022/03/11 04:48:20;;;;;;;2.83;2.63;;;19.60;25.30;;;;;;5128856;27;46874;-21
2022/03/11 04:50:47;;;;;;;2.92;2.65;;;19.60;25.30;;;;;;5129099;27;47061;-21
2022/03/11 04:53:13;;;;;;;2.97;2.55;;;19.60;25.30;;;;;;5128178;27;48827;-22
2022/03/11 04:55:40;;;;;;;3.58;2.75;;;19.60;25.30;;;;;;5128803;27;46908;-22
2022/03/11 04:58:08;;;;;;;3.00;2.70;;;19.50;25.30;;;;;;5128595;27;46784;-21
2022/03/11 05:00:35;;;;;;;3.50;2.85;;;19.50;25.30;;;;;;5128697;27;47300;-21
2022/03/11 05:03:02;;;;;;;3.05;2.72;;;19.50;25.30;;;;;;5128484;27;48785;-21
2022/03/11 05:05:29;;;;;;;2.55;2.35;;;19.50;25.30;;;;;;5128460;27;46802;-21
2022/03/11 05:07:55;;;;;;;3.75;2.78;;;19.60;25.30;;;;;;5128875;27;46740;-21
2022/03/11 05:10:22;;;;;;;3.47;2.65;;;19.50;25.30;;;;;;5127929;27;47146;-22
2022/03/11 05:12:49;;;;;;;3.13;2.72;;;19.50;25.30;;;;;;5129001;27;46908;-22
2022/03/11 05:15:17;;;;;;;2.58;2.38;;;19.50;25.30;;;;;;5128293;27;47082;-22
2022/03/11 05:17:44;;;;;;;3.47;2.63;;;19.50;25.30;;;;;;5128572;27;46903;-21
2022/03/11 05:20:12;;;;;;;2.90;2.47;;;19.50;25.30;;;;;;5128475;27;46730;-21
2022/03/11 05:22:38;;;;;;;3.20;2.72;;;19.50;25.30;;;;;;5128200;27;47960;-21
2022/03/11 05:25:06;;;;;;;4.88;3.17;;;19.40;25.30;;;;;;5128042;27;47143;-21
2022/03/11 05:27:34;;;;;;;3.13;2.80;;;19.40;25.30;;;;;;5128117;27;46899;-21
2022/03/11 05:30:01;;;;;;;3.35;2.63;;;19.40;25.30;;;;;;5128347;27;47107;-22
2022/03/11 05:32:29;;;;;;;4.00;3.05;;;19.50;25.30;;;;;;5128179;27;47879;-21
2022/03/11 05:34:56;;;;;;;2.80;2.60;;;19.40;25.30;;;;;;5128090;27;47086;-22
2022/03/11 05:37:23;;;;;;;3.10;2.80;;;19.40;25.30;;;;;;5128144;27;46900;-21
2022/03/11 05:39:50;;;;;;;2.97;2.60;;;19.40;25.30;;;;;;5128270;27;46895;-22
2022/03/11 05:42:16;;;;;;;3.47;3.08;;;19.40;25.30;;;;;;5128111;27;48864;-21
2022/03/11 05:44:43;;;;;;;3.15;2.80;;;19.40;25.30;;;;;;5128239;27;46863;-22
2022/03/11 05:47:10;;;;;;;3.47;2.80;;;19.40;25.20;;;;;;5128102;27;46964;-21
2022/03/11 05:49:38;;;;;;;3.20;2.90;;;19.40;25.30;;;;;;5128078;27;46860;-21
2022/03/11 05:52:05;;;;;;;3.45;2.45;;;19.40;25.30;;;;;;5127548;27;47875;-20
2022/03/11 05:54:32;;;;;;;3.05;2.70;;;19.40;25.30;;;;;;5127777;27;47421;-21
2022/03/11 05:57:00;;;;;;;2.92;2.55;;;19.40;25.30;;;;;;5127970;27;46950;-22
2022/03/11 05:59:29;;;;;;;3.42;2.80;;;19.40;25.20;;;;;;5128071;27;46942;-22
2022/03/11 06:01:55;;;;;;;3.67;3.08;;;19.40;25.30;;;;;;5127874;27;48234;-21
2022/03/11 06:04:22;;;;;;;3.10;2.80;;;19.40;25.30;;;;;;5126815;27;46905;-21
2022/03/11 06:06:50;;;;;;;3.13;2.83;;;19.40;25.30;;;;;;5127196;27;47047;-22
2022/03/11 06:09:17;;;;;;;3.30;2.90;;;19.30;25.30;;;;;;5127621;27;46998;-21
2022/03/11 06:11:44;;;;;;;3.75;2.95;;;19.30;25.70;;;;;;5127474;27;48137;-21
2022/03/11 06:14:11;;;;;;;5.18;2.90;;;19.30;25.20;;;;;;5127414;27;47384;-21
2022/03/11 06:16:37;;;;;;;3.10;2.58;;;19.30;25.20;;;;;;5127564;27;46919;-21
2022/03/11 06:19:04;;;;;;;4.47;2.70;;;19.30;25.30;;;;;;5127485;27;47272;-21
2022/03/11 06:21:31;;;;;;;3.28;2.97;;;19.30;25.20;;;;;;5127447;27;48142;-22
2022/03/11 06:23:59;;;;;;;4.65;3.20;;;19.30;25.20;;;;;;5127404;27;47138;-22
2022/03/11 06:26:26;;;;;;;3.63;2.67;;;19.30;25.20;;;;;;5127591;27;46731;-22
2022/03/11 06:28:52;;;;;;;3.08;2.78;;;19.30;25.20;;;;;;5127392;27;46899;-21
2022/03/11 06:31:19;;;;;;;3.05;2.72;;;19.30;25.30;;;;;;5127292;27;48841;-21
2022/03/11 06:33:46;;;;;;;3.17;2.83;;;19.30;25.30;;;;;;5127176;27;46948;-22
2022/03/11 06:36:12;;;;;;;4.35;3.35;;;19.30;25.30;;;;;;5126678;27;46919;-21
2022/03/11 06:38:39;;;;;;;4.72;3.15;;;19.30;25.30;;;;;;5126335;27;47285;-21
2022/03/11 06:41:07;;;;;;;3.58;3.20;;;19.30;25.30;;;;;;5126717;27;47905;-21
2022/03/11 06:43:35;;;;;;;3.30;2.92;;;19.30;25.30;;;;;;5127139;27;47140;-21
2022/03/11 06:46:01;;;;;;;3.50;3.20;;;19.30;25.30;;;;;;5126899;27;47213;-22
2022/03/11 06:48:28;;;;;;;4.00;3.30;;;19.30;25.30;;;;;;5127023;27;47105;-22
2022/03/11 06:50:55;;;;;;;3.65;3.35;;;19.30;25.30;;;;;;5126431;27;47836;-16
2022/03/11 06:53:25;;;;;;;3.55;3.17;;;19.30;25.30;;;;;;5126794;27;46946;-16
2022/03/11 06:55:52;;;;;;;3.70;3.25;;;19.30;25.30;;;;;;5127023;27;46906;-16
2022/03/11 06:58:21;;;;;;;3.97;3.40;;;19.30;25.30;;;;;;5127214;27;46923;-17
2022/03/11 07:00:48;;;;;;;3.70;3.40;;;19.30;25.30;;;;;;5126398;27;47803;-16
2022/03/11 07:03:14;;;;;;;4.40;3.88;;;19.30;25.30;;;;;;5126942;27;46934;-17
2022/03/11 07:05:42;;;;;;;3.22;2.92;;;19.30;25.30;;;;;;5126638;27;46923;-16
2022/03/11 07:08:10;;;;;;;4.35;3.63;;;19.30;25.20;;;;;;5127038;27;47172;-16
2022/03/11 07:10:37;;;;;;;3.60;3.10;;;19.30;25.10;;;;;;5126015;27;46863;-16
2022/03/11 07:13:03;;;;;;;3.92;3.42;;;19.30;25.20;;;;;;5126479;27;46806;-17
2022/03/11 07:15:31;;;;;;;5.18;3.53;;;19.30;25.30;;;;;;5126532;27;46836;-16
2022/03/11 07:17:58;;;;;;;5.10;3.60;;;19.30;25.20;;;;;;5139559;27;46926;-16
2022/03/11 07:20:25;;;;;;;4.43;3.38;;;19.30;25.30;;;;;;5147508;27;47070;-17
2022/03/11 07:22:52;;;;;;;4.75;3.35;;;19.40;25.30;;;;;;5147020;27;46882;-16
2022/03/11 07:25:19;;;;;;;5.15;3.47;;;19.30;25.20;;;;;;5146824;27;46795;-16
2022/03/11 07:27:46;;;;;;;4.57;3.58;;;19.30;25.00;;;;;;5147335;27;46852;-16
2022/03/11 07:30:13;;;;;;;3.58;3.28;;;19.30;25.20;;;;;;5146854;27;48410;-15
2022/03/11 07:32:41;;;;;;;3.60;3.28;;;19.30;25.20;;;;;;5146636;27;46824;-16
2022/03/11 07:35:12;;;;;;;4.28;3.35;;;19.40;25.30;;;;;;5140313;27;47083;-16
2022/03/11 07:37:41;;;;;;;3.75;3.22;;;19.30;25.10;;;;;;5130047;27;46919;-17
2022/03/11 07:40:10;;;;;;;5.47;3.40;;;19.40;25.20;;;;;;5144985;27;48096;-21
2022/03/11 07:42:36;;;;;;;4.93;3.10;;;19.40;25.20;;;;;;5145099;27;47120;-22
2022/03/11 07:45:04;;;;;;;4.07;3.55;;;19.40;25.30;;;;;;5145826;27;47110;-22
2022/03/11 07:47:30;;;;;;;4.60;3.22;;;19.40;25.30;;;;;;5145561;27;47249;-21
2022/03/11 07:49:58;;;;;;;5.38;3.28;;;19.30;25.30;;;;;;5145462;27;46996;-21
2022/03/11 07:52:25;;;;;;;4.88;3.65;;;19.40;25.30;;;;;;5145757;27;46930;-21
2022/03/11 07:54:52;;;;;;;4.53;3.78;;;19.40;25.30;;;;;;5147068;27;46875;-22
2022/03/11 07:57:18;;;;;;;4.55;3.45;;;19.40;25.30;;;;;;5145364;27;46984;-21
2022/03/11 07:59:45;;;;;;;4.47;3.80;;;19.40;25.30;;;;;;5144982;27;48176;-21
2022/03/11 08:02:12;;;;;;;4.70;3.80;;;19.40;25.30;;;;;;5144877;27;46841;-21
2022/03/11 08:04:39;;;;;;;3.90;3.33;;;19.40;25.40;;;;;;5145084;27;46939;-21
2022/03/11 08:07:09;;;;;;;5.25;3.58;;;19.40;25.40;;;;;;5145220;27;46974;-21
2022/03/11 08:09:38;;;;;;;4.80;3.42;;;19.40;25.30;;;;;;5145135;27;47942;-21
2022/03/11 08:12:05;;;;;;;4.20;3.80;;;19.40;25.30;;;;;;5145630;27;47007;-21
2022/03/11 08:14:32;;;;;;;5.00;3.75;;;19.40;25.30;;;;;;5146387;27;46884;-21
2022/03/11 08:16:59;;;;;;;4.45;4.00;;;19.40;25.40;;;;;;5146880;27;47325;-21
2022/03/11 08:19:25;;;;;;;4.18;3.70;;;19.40;25.40;;;;;;5146275;27;47095;-20
2022/03/11 08:21:52;;;;;;;4.15;3.58;;;19.40;25.40;;;;;;5146696;27;46971;-21
2022/03/11 08:24:21;;;;;;;5.85;3.83;;;19.40;25.40;;;;;;5146678;27;46816;-21
2022/03/11 08:26:48;;;;;;;4.65;3.90;;;19.40;25.40;;;;;;5146816;27;46907;-21
2022/03/11 08:29:16;;;;;;;4.07;3.67;;;19.50;25.40;;;;;;5148475;27;48138;-21
2022/03/11 08:31:43;;;;;;;6.22;3.83;;;19.50;25.40;;;;;;5149701;27;46979;-21
2022/03/11 08:34:10;;;;;;;5.63;4.07;;;19.50;25.50;;;;;;5150001;27;46895;-21
2022/03/11 08:36:38;;;;;;;5.45;4.20;;;19.40;25.50;;;;;;5150111;27;47162;-21
2022/03/11 08:39:04;;;;;;;4.50;4.10;;;19.40;25.60;;;;;;5149547;27;47317;-21
2022/03/11 08:41:32;;;;;;;5.28;4.45;;;19.50;25.60;;;;;;5150102;27;46892;-21
2022/03/11 08:43:59;;;;;;;4.82;4.28;;;19.50;25.50;;;;;;5149879;27;46880;-21
2022/03/11 08:46:26;;;;;;;5.47;4.47;;;19.50;25.50;;;;;;5149801;27;47074;-21
2022/03/11 08:48:53;;;;;;;4.47;4.00;;;19.50;25.60;;;;;;5148860;27;47257;-21
2022/03/11 08:51:20;;;;;;;6.63;4.28;;;19.50;25.70;;;;;;5148977;27;46967;-21
2022/03/11 08:53:48;;;;;;;4.85;4.15;;;19.60;25.70;;;;;;5149241;27;47029;-21
2022/03/11 08:56:15;;;;;;;5.40;4.03;;;19.60;25.70;;;;;;5149732;27;46890;-20
2022/03/11 08:58:43;;;;;;;5.95;4.20;;;19.60;25.70;;;;;;5149549;27;47082;-20
2022/03/11 09:01:10;;;;;;;8.20;4.32;;;19.60;25.70;;;;;;5149272;27;47480;-20
2022/03/11 09:03:37;;;;;;;6.13;4.13;;;19.70;25.70;;;;;;5149832;27;46988;-21
2022/03/11 09:06:03;;;;;;;6.00;4.68;;;19.60;25.60;;;;;;5149370;27;46939;-21
2022/03/11 09:08:34;;;;;;;6.57;4.45;;;19.70;25.70;;;;;;5149136;27;48887;-21
2022/03/11 09:11:02;;;;;;;7.05;4.68;;;19.60;25.60;;;;;;5148942;27;46805;-16
2022/03/11 09:13:28;;;;;;;6.80;4.82;;;19.60;25.60;;;;;;5149703;27;46998;-16
2022/03/11 09:15:57;;;;;;;7.35;4.93;;;19.70;25.80;;;;;;5149215;27;47204;-16
2022/03/11 09:18:23;;;;;;;7.50;4.63;;;19.70;25.70;;;;;;5149262;27;47092;-16
2022/03/11 09:20:50;;;;;;;8.25;5.10;;;19.70;25.70;;;;;;5149230;27;47395;-15
2022/03/11 09:23:17;;;;;;;7.95;5.10;;;19.70;25.70;;;;;;5148881;27;47006;-16
2022/03/11 09:25:45;;;;;;;9.35;5.50;;;19.80;25.70;;;;;;5149171;27;46829;-21
2022/03/11 09:28:12;;;;;;;7.28;4.65;;;19.80;25.80;;;;;;5149296;27;46960;-22
2022/03/11 09:30:38;;;;;;;5.88;4.85;;;19.80;25.70;;;;;;5147809;27;47092;-21
2022/03/11 09:33:07;;;;;;;5.82;4.85;;;19.80;25.80;;;;;;5147433;27;47031;-22
2022/03/11 09:35:34;;;;;;;7.53;5.57;;;19.90;25.70;;;;;;5148171;27;46772;-22
2022/03/11 09:38:01;;;;;;;7.15;5.22;;;19.90;25.80;;;;;;5147786;27;48128;-21
2022/03/11 09:40:27;;;;;;;7.00;5.03;;;19.90;25.80;;;;;;5148264;27;46894;-21
2022/03/11 09:42:54;;;;;;;6.18;4.85;;;19.90;25.70;;;;;;5148973;27;46883;-21
2022/03/11 09:45:23;;;;;;;6.78;4.65;;;19.90;25.80;;;;;;5148483;27;47138;-21
2022/03/11 09:47:50;;;;;;;6.43;4.75;;;19.90;25.80;;;;;;5148943;27;48014;-21
2022/03/11 09:50:29;;;;;;;6.10;4.85;;;19.90;25.80;;;;;;5147518;27;47100;-21
2022/03/11 09:52:56;;;;;;;6.00;4.75;;;19.90;25.80;;;;;;5147949;27;46859;-18
2022/03/11 09:55:24;;;;;;;5.97;4.53;;;20.00;25.80;;;;;;5147994;27;46972;-15
2022/03/11 09:57:51;;;;;;;5.32;4.45;;;20.10;25.80;;;;;;5147925;27;49069;-16
2022/03/11 10:00:18;;;;;;;7.88;4.90;;;20.10;25.60;;;;;;5147539;27;47028;-16
2022/03/11 10:02:47;;;;;;;5.90;5.20;;;20.10;25.70;;;;;;5147665;27;46880;-16
2022/03/11 10:05:13;;;;;;;6.22;4.82;;;20.10;25.60;;;;;;5147709;27;46948;-16
2022/03/11 10:07:41;;;;;;;5.78;4.80;;;20.10;25.90;;;;;;5147394;27;48271;-16
2022/03/11 10:10:16;;;;;;;7.60;4.30;;;20.10;25.90;;;;;;5147508;27;47050;-16
2022/03/11 10:12:43;;;;;;;5.35;4.55;;;20.20;26.30;;;;;;5148233;27;46905;-16
2022/03/11 10:15:11;;;;;;;8.25;4.63;;;20.20;25.90;;;;;;5147316;27;47207;-16
2022/03/11 10:17:39;;;;;;;6.68;4.60;;;20.20;25.80;;;;;;5147718;27;48368;-16
2022/03/11 10:20:07;;;;;;;6.78;4.65;;;20.30;25.90;;;;;;5147009;27;47277;-15
2022/03/11 10:22:34;;;;;;;5.15;4.43;;;20.30;25.90;;;;;;5146596;27;46851;-17
2022/03/11 10:25:09;;;;;;;5.35;4.35;;;20.30;25.90;;;;;;5150146;27;48019;-16
2022/03/11 10:27:55;;;;;;;5.45;3.88;;;20.30;25.90;;;;;;5152555;27;48387;-21
2022/03/11 10:30:22;;;;;;;6.20;4.70;;;20.30;26.00;;;;;;5137216;27;46879;-22
2022/03/11 10:32:50;;;;;;;5.03;4.22;;;20.40;26.00;;;;;;5146363;27;46953;-22
2022/03/11 10:35:19;;;;;;;5.18;4.07;;;20.40;26.00;;;;;;5146722;27;47131;-22
2022/03/11 10:37:59;;;;;;;4.90;4.13;;;20.50;25.90;;;;;;5142646;27;47074;-22
2022/03/11 10:40:28;;;;;;;4.97;4.25;;;20.50;25.90;;;;;;5147806;27;46894;-22
2022/03/11 10:43:12;;;;;;;4.82;4.00;;;20.60;25.90;;;;;;5147858;27;46937;-22
2022/03/11 10:45:50;;;;;;;4.60;3.65;;;20.60;25.90;;;;;;5147636;27;47271;-20
2022/03/11 10:48:17;;;;;;;6.93;4.13;;;20.60;25.90;;;;;;5147743;27;48167;-20
2022/03/11 10:50:44;;;;;;;6.90;4.28;;;20.70;25.90;;;;;;5146069;27;46880;-22
2022/03/11 10:53:12;;;;;;;12.68;4.32;;;20.70;26.00;;;;;;5146644;27;46784;-20
2022/03/11 10:55:42;;;;;;;8.27;4.43;;;20.70;26.10;;;;;;5146967;27;46872;-20
2022/03/11 10:58:16;;;;;;;9.93;4.00;;;20.70;26.00;;;;;;5148221;27;48208;-15
2022/03/11 11:00:43;;;;;;;12.57;4.88;;;20.80;25.90;;;;;;5147190;27;46904;-14
2022/03/11 11:03:10;;;;;;;10.77;4.63;;;20.90;26.00;;;;;;5147409;27;46792;-15
2022/03/11 11:05:37;;;;;;;16.80;4.65;;;20.90;25.90;;;;;;5147809;27;46777;-14
2022/03/11 11:08:05;;;;;;;11.93;4.88;;;21.00;26.40;;;;;;5147692;27;47708;-14
2022/03/11 11:10:33;;;;;;;13.82;4.47;;;21.00;25.90;;;;;;5147161;27;47101;-14
2022/03/11 11:13:01;;;;;;;12.60;4.75;;;21.10;25.90;;;;;;5147686;27;46828;-15
2022/03/11 11:15:28;;;;;;;8.57;4.47;;;21.10;25.80;;;;;;5146870;27;46986;-15
2022/03/11 11:17:55;;;;;;;13.02;4.38;;;21.10;25.80;;;;;;5146724;27;46964;-14
2022/03/11 11:20:23;;;;;;;10.18;5.00;;;21.20;25.80;;;;;;5146507;27;46926;-15
2022/03/11 11:22:50;;;;;;;12.63;4.75;;;21.30;25.80;;;;;;5132515;27;46881;-14
2022/03/11 11:25:18;;;;;;;15.05;5.15;;;21.40;25.70;;;;;;5146719;27;46871;-15
2022/03/11 11:27:45;;;;;;;9.25;4.70;;;21.40;25.60;;;;;;5146305;27;47852;-14
2022/03/11 11:30:17;;;;;;;7.88;4.30;;;21.50;25.60;;;;;;5143750;27;47023;-15
2022/03/11 11:32:44;;;;;;;12.80;4.60;;;21.60;25.40;;;;;;5146794;27;47043;-16
2022/03/11 11:35:27;;;;;;;13.20;5.05;;;21.60;25.90;;;;;;5146564;27;47125;-15
2022/03/11 11:37:54;;;;;;;13.18;4.30;;;21.70;25.50;;;;;;5144411;27;49034;-21
2022/03/11 11:40:22;;;;;;;7.97;4.55;;;21.70;25.50;;;;;;5146403;27;47061;-21
2022/03/11 11:43:25;;;;;;;10.35;4.30;;;21.70;25.50;;;;;;5146289;27;46829;-20
2022/03/11 11:46:12;;;;;;;11.07;4.50;;;21.80;25.50;;;;;;5126540;27;46797;-21
2022/03/11 11:48:59;;;;;;;10.50;4.43;;;21.80;25.50;;;;;;5144726;27;49069;-21
2022/03/11 11:51:55;;;;;;;7.72;4.35;;;21.90;25.60;;;;;;5140032;27;46837;-21
2022/03/11 11:54:50;;;;;;;10.05;4.70;;;21.90;25.60;;;;;;5136779;27;46887;-21
2022/03/11 11:57:24;;;;;;;9.18;5.90;;;22.00;25.50;;;;;;5147082;27;46884;-21
2022/03/11 11:59:50;;;;;;;20.70;6.88;;;22.10;25.10;;;;;;5146645;27;48432;-21
2022/03/11 12:02:35;;;;;;;10.10;5.57;;;22.20;24.80;;;;;;5147810;27;46816;-21
2022/03/11 12:05:02;;;;;;;14.35;8.10;;;22.20;24.90;;;;;;5150587;27;47051;-21
2022/03/11 12:07:47;;;;;;;12.35;7.90;;;22.20;24.40;;;;;;5150376;27;47178;-20
2022/03/11 12:10:26;;;;;;;14.70;6.43;;;22.30;24.20;;;;;;5149943;27;48237;-20
2022/03/11 12:13:04;;;;;;;11.10;6.28;;;22.20;24.90;;;;;;5150093;27;46949;-21
2022/03/11 12:15:35;;;;;;;12.85;8.93;;;22.20;24.80;;;;;;5150006;27;46939;-21
2022/03/11 12:18:05;;;;;;;15.90;9.43;;;22.20;24.10;;;;;;5147622;27;46976;-21
2022/03/11 12:20:37;;;;;;;14.57;9.27;;;22.10;23.90;;;;;;5149479;27;47803;-22
2022/03/11 12:23:05;;;;;;;19.63;10.13;;;21.90;24.00;;;;;;5147971;27;47497;-21
2022/03/11 12:25:33;;;;;;;11.70;9.35;;;21.90;24.30;;;;;;5149690;27;46981;-21
2022/03/11 12:28:10;;;;;;;14.65;9.85;;;21.80;24.20;;;;;;5147394;27;46922;-20
2022/03/11 12:30:39;;;;;;;15.52;10.07;;;21.70;24.00;;;;;;5149618;27;47902;-20
2022/03/11 12:33:07;;;;;;;19.90;10.90;;;21.60;24.10;;;;;;5143594;27;46930;-22
2022/03/11 12:35:35;;;;;;;17.35;10.57;;;21.50;24.50;;;;;;5146935;27;47023;-20
2022/03/11 12:38:02;;;;;;;16.15;10.23;;;21.50;24.50;;;;;;5144485;27;47174;-20
2022/03/11 12:40:29;;;;;;;13.57;9.57;;;21.50;24.80;;;;;;5145684;27;46945;-20
2022/03/11 12:43:03;;;;;;;15.32;11.07;;;21.50;24.50;;;;;;5147097;27;46956;-20
2022/03/11 12:45:38;;;;;;;18.25;10.40;;;21.50;24.20;;;;;;5146128;27;46988;-21
2022/03/11 12:48:06;;;;;;;16.30;10.50;;;21.40;25.00;;;;;;5141211;27;47033;-22
2022/03/11 12:50:34;;;;;;;16.60;10.27;;;21.40;24.60;;;;;;5146871;27;48875;-22